Valtellina — ICKF — position and weather

sailwx.info

Track history (hours):
 
Tides and Currents Weather Stations Pressure Air Temp Water Temp Dewpoint Dewpoint Depression Visibility Wind Speed Wind Dir Waves Ship Positions

Valtellina

Last reported at 2014-Nov-27 13:33 UTC. Time now 2014-Nov-27 14:14 UTC.
Position N 52°26' E 003°58'.

Length 184 m; draft 7.8 m.

Type: Ship. MMSI: 247243900.

Date/timePositionNaut miles runAvg speedWind from/ knotsBaromVisibWave heightAir tempDewpointWater temp
2014-Nov-27 13:33N 52°26' E 003°58'9 8.6
2014-Nov-27 12:33N 52°28' E 003°45'9 9.2
2014-Nov-27 11:33N 52°22' E 003°34'1411.6
2014-Nov-27 10:23N 52°09' E 003°32'1113.0
2014-Nov-27 09:33N 52°04' E 003°47'1110.9
2014-Nov-27 08:33N 51°59' E 004°03'7 7.4
2014-Nov-27 07:33N 51°55' E 004°13'0 0.0
2014-Nov-27 06:33N 51°55' E 004°13'0 0.0
2014-Nov-27 05:33N 51°55' E 004°13'0 0.0
2014-Nov-27 04:33N 51°55' E 004°13'0 0.0
2014-Nov-27 03:33N 51°55' E 004°13'0 0.0
2014-Nov-27 02:33N 51°55' E 004°13'0 0.0
2014-Nov-27 01:27N 51°55' E 004°13'0 0.0
2014-Nov-27 00:33N 51°55' E 004°13'0 0.0
2014-Nov-26 23:33N 51°55' E 004°13'0 0.0
2014-Nov-26 22:33N 51°55' E 004°13'0 0.0
2014-Nov-26 21:33N 51°55' E 004°13'0 0.0
2014-Nov-26 20:30N 51°55' E 004°13'0 0.0
2014-Nov-26 19:33N 51°55' E 004°13'0 0.0
2014-Nov-26 18:33N 51°55' E 004°13'0 0.0
2014-Nov-26 17:33N 51°55' E 004°13'0 0.0
2014-Nov-26 16:33N 51°55' E 004°13'0 0.0
2014-Nov-26 15:33N 51°55' E 004°13'0 0.0
2014-Nov-26 14:33N 51°55' E 004°13'0 0.0
2014-Nov-26 13:33N 51°55' E 004°13'0 0.0
2014-Nov-26 12:33N 51°55' E 004°13'0 0.0
2014-Nov-26 11:33N 51°55' E 004°13'0 0.0
2014-Nov-26 10:33N 51°55' E 004°13'0 0.0
2014-Nov-26 09:33N 51°55' E 004°13'0 0.0
2014-Nov-26 08:33N 51°55' E 004°13'0 0.0
2014-Nov-26 07:33N 51°55' E 004°13'0 0.0
2014-Nov-26 06:33N 51°55' E 004°13'0 0.0
2014-Nov-26 05:33N 51°55' E 004°13'0 0.0
2014-Nov-26 04:33N 51°55' E 004°13'0 0.0
2014-Nov-26 03:33N 51°55' E 004°13'2 1.9
2014-Nov-26 02:34N 51°56' E 004°11'8 7.8
2014-Nov-26 01:34N 51°60' E 003°59'9 9.0
2014-Nov-26 00:33N 52°00' E 003°45'1010.5
2014-Nov-25 23:33N 51°56' E 003°29'1110.4
2014-Nov-25 22:33N 51°53' E 003°13'1010.3
2014-Nov-25 21:33N 51°50' E 002°57'1110.5
2014-Nov-25 20:28N 51°46' E 002°40'1011.2
2014-Nov-25 19:33N 51°39' E 002°29'1211.7
2014-Nov-25 18:33N 51°30' E 002°16'1212.4
2014-Nov-25 17:33N 51°19' E 002°08'1212.0
2014-Nov-25 16:34N 51°10' E 001°55'1313.3
2014-Nov-25 15:33N 51°02' E 001°38'1414.2
2014-Nov-25 14:33N 50°50' E 001°25'3213.0
2014-Nov-25 12:05N 50°29' E 000°47'1313.4
2014-Nov-25 11:05N 50°25' E 000°27'814.2
2014-Nov-25 10:33N 50°22' E 000°16'7412.4
2014-Nov-25 04:33N 50°03' W 001°36'  
2014-Nov-22 02:06N 38°39' W 009°56'712.6
2014-Nov-22 01:31N 38°31' W 009°54'1212.3
2014-Nov-22 00:32N 38°20' W 009°51'1212.3
2014-Nov-21 23:33N 38°08' W 009°47'1212.4
2014-Nov-21 22:33N 37°56' W 009°43'1212.5
2014-Nov-21 21:33N 37°44' W 009°40'1312.4
2014-Nov-21 20:32N 37°32' W 009°36'21910.9
2014-Nov-21 00:33N 35°60' W 005°28'1111.3
2014-Nov-20 23:33N 36°04' W 005°15'28612.2
2014-Nov-20 00:10N 36°52' E 000°36'1212.6
2014-Nov-19 23:12N 36°55' E 000°51'812.5
2014-Nov-19 22:32N 36°56' E 001°01'1212.5
2014-Nov-19 21:33N 36°59' E 001°16'1212.5
2014-Nov-19 20:33N 37°01' E 001°31'3712.2
2014-Nov-19 17:28N 37°08' E 002°18'1011.3
2014-Nov-19 16:34N 37°10' E 002°30'1312.9
2014-Nov-19 15:33N 37°13' E 002°46'1313.0
2014-Nov-19 14:33N 37°15' E 003°02'1312.7
2014-Nov-19 13:33N 37°15' E 003°18'1411.9
2014-Nov-19 12:24N 37°16' E 003°36'1011.9
2014-Nov-19 11:32N 37°16' E 003°48'1212.5
2014-Nov-19 10:33N 37°17' E 004°04'1312.6
2014-Nov-19 09:33N 37°16' E 004°20'  
Track history (hours):
 
Tides and Currents Weather Stations Pressure Air Temp Water Temp Dewpoint Dewpoint Depression Visibility Wind Speed Wind Dir Waves Ship Positions

Valtellina

Last reported at 2014-Nov-27 13:33 UTC. Time now 2014-Nov-27 14:14 UTC.
Position N 52°26' E 003°58'.

Length 184 m; draft 7.8 m.

Type: Ship. MMSI: 247243900.

Date/timePositionNaut miles runAvg speedWind from/ knotsBaromVisibWave heightAir tempDewpointWater temp
2014-Nov-27 13:33N 52°26' E 003°58'9 8.6
2014-Nov-27 12:33N 52°28' E 003°45'9 9.2
2014-Nov-27 11:33N 52°22' E 003°34'1411.6
2014-Nov-27 10:23N 52°09' E 003°32'1113.0
2014-Nov-27 09:33N 52°04' E 003°47'1110.9
2014-Nov-27 08:33N 51°59' E 004°03'7 7.4
2014-Nov-27 07:33N 51°55' E 004°13'0 0.0
2014-Nov-27 06:33N 51°55' E 004°13'0 0.0
2014-Nov-27 05:33N 51°55' E 004°13'0 0.0
2014-Nov-27 04:33N 51°55' E 004°13'0 0.0
2014-Nov-27 03:33N 51°55' E 004°13'0 0.0
2014-Nov-27 02:33N 51°55' E 004°13'0 0.0
2014-Nov-27 01:27N 51°55' E 004°13'0 0.0
2014-Nov-27 00:33N 51°55' E 004°13'0 0.0
2014-Nov-26 23:33N 51°55' E 004°13'0 0.0
2014-Nov-26 22:33N 51°55' E 004°13'0 0.0
2014-Nov-26 21:33N 51°55' E 004°13'0 0.0
2014-Nov-26 20:30N 51°55' E 004°13'0 0.0
2014-Nov-26 19:33N 51°55' E 004°13'0 0.0
2014-Nov-26 18:33N 51°55' E 004°13'0 0.0
2014-Nov-26 17:33N 51°55' E 004°13'0 0.0
2014-Nov-26 16:33N 51°55' E 004°13'0 0.0
2014-Nov-26 15:33N 51°55' E 004°13'0 0.0
2014-Nov-26 14:33N 51°55' E 004°13'0 0.0
2014-Nov-26 13:33N 51°55' E 004°13'0 0.0
2014-Nov-26 12:33N 51°55' E 004°13'0 0.0
2014-Nov-26 11:33N 51°55' E 004°13'0 0.0
2014-Nov-26 10:33N 51°55' E 004°13'0 0.0
2014-Nov-26 09:33N 51°55' E 004°13'0 0.0
2014-Nov-26 08:33N 51°55' E 004°13'0 0.0
2014-Nov-26 07:33N 51°55' E 004°13'0 0.0
2014-Nov-26 06:33N 51°55' E 004°13'0 0.0
2014-Nov-26 05:33N 51°55' E 004°13'0 0.0
2014-Nov-26 04:33N 51°55' E 004°13'0 0.0
2014-Nov-26 03:33N 51°55' E 004°13'2 1.9
2014-Nov-26 02:34N 51°56' E 004°11'8 7.8
2014-Nov-26 01:34N 51°60' E 003°59'9 9.0
2014-Nov-26 00:33N 52°00' E 003°45'1010.5
2014-Nov-25 23:33N 51°56' E 003°29'1110.4
2014-Nov-25 22:33N 51°53' E 003°13'1010.3
2014-Nov-25 21:33N 51°50' E 002°57'1110.5
2014-Nov-25 20:28N 51°46' E 002°40'1011.2
2014-Nov-25 19:33N 51°39' E 002°29'1211.7
2014-Nov-25 18:33N 51°30' E 002°16'1212.4
2014-Nov-25 17:33N 51°19' E 002°08'1212.0
2014-Nov-25 16:34N 51°10' E 001°55'1313.3
2014-Nov-25 15:33N 51°02' E 001°38'1414.2
2014-Nov-25 14:33N 50°50' E 001°25'3213.0
2014-Nov-25 12:05N 50°29' E 000°47'1313.4
2014-Nov-25 11:05N 50°25' E 000°27'814.2
2014-Nov-25 10:33N 50°22' E 000°16'7412.4
2014-Nov-25 04:33N 50°03' W 001°36'  
2014-Nov-22 02:06N 38°39' W 009°56'712.6
2014-Nov-22 01:31N 38°31' W 009°54'1212.3
2014-Nov-22 00:32N 38°20' W 009°51'1212.3
2014-Nov-21 23:33N 38°08' W 009°47'1212.4
2014-Nov-21 22:33N 37°56' W 009°43'1212.5
2014-Nov-21 21:33N 37°44' W 009°40'1312.4
2014-Nov-21 20:32N 37°32' W 009°36'21910.9
2014-Nov-21 00:33N 35°60' W 005°28'1111.3
2014-Nov-20 23:33N 36°04' W 005°15'28612.2
2014-Nov-20 00:10N 36°52' E 000°36'1212.6
2014-Nov-19 23:12N 36°55' E 000°51'812.5
2014-Nov-19 22:32N 36°56' E 001°01'1212.5
2014-Nov-19 21:33N 36°59' E 001°16'1212.5
2014-Nov-19 20:33N 37°01' E 001°31'3712.2
2014-Nov-19 17:28N 37°08' E 002°18'1011.3
2014-Nov-19 16:34N 37°10' E 002°30'1312.9
2014-Nov-19 15:33N 37°13' E 002°46'1313.0
2014-Nov-19 14:33N 37°15' E 003°02'1312.7
2014-Nov-19 13:33N 37°15' E 003°18'1411.9
2014-Nov-19 12:24N 37°16' E 003°36'1011.9
2014-Nov-19 11:32N 37°16' E 003°48'1212.5
2014-Nov-19 10:33N 37°17' E 004°04'1312.6
2014-Nov-19 09:33N 37°16' E 004°20'  

Dump ship's entire track history